PWSweather.com
Personal Weather Stations
Station Observations
SWHWX01
St AppolinardFR 38160

St AppolinardFR 38160

Lat: 45.191, Lon: 5.268

Elevation: 1460

Station Type: Davis Vantage Pro2 Plus

Latest ConditionsUpdated 3:00:03 PM GMT+01:01 Monday, Jun 26, 2017
Currently Today's Max Today's Min Today's Average
Temperature 76.4°F24.7°C 76.4°F24.7°C 61.9°F16.6°C 68.0°F20.0°C
Dew Point 62.4°F16.9°C 63.7°F17.6°C 53.9°F12.2°C 58.0°F14.4°C
Winds Calm Calm 3.5 mph NNW5.6 kmh NNW - 1.5 mph 2.4 kmh
Wind Gusts -- 8.0 mph12.9 kmh - -
Humidity 62% 78% 62% 70%
Pressure 29.81 in1009.5 mb 29.95 in1014.2 mb 29.81 in1009.5 mb -
Hour Temp Dew Point Humidity Winds Wind Gusts Pressure Precip Precip Rate Daily Precip Total
03:00 PM 76.4°F24.7°C 62.4°F16.9°C 62% Calm Calm -- 29.81 in1009.5 mb - 0.00 in0.0 mm 0.00 in0.0 mm
02:30 PM 73.5°F23.1°C 63.2°F17.3°C 70% 2.1 mph SW3.4 kmh SW 4.0 mph6.4 kmh 29.81 in1009.5 mb - 0.00 in0.0 mm 0.00 in0.0 mm
02:00 PM 71.7°F22.1°C 63.7°F17.6°C 76% 1.1 mph SW1.8 kmh SW 3.0 mph4.8 kmh 29.84 in1010.5 mb - 0.00 in0.0 mm 0.00 in0.0 mm
01:30 PM 73.2°F22.9°C 63.7°F17.6°C 72% 0.4 mph WSW0.6 kmh WSW 1.0 mph1.6 kmh 29.85 in1010.8 mb - 0.00 in0.0 mm 0.00 in0.0 mm
01:00 PM 73.0°F22.8°C 61.8°F16.6°C 68% 2.8 mph S4.5 kmh S 5.0 mph8.0 kmh 29.86 in1011.2 mb - 0.00 in0.0 mm 0.00 in0.0 mm
12:30 PM 71.2°F21.8°C 61.7°F16.5°C 72% 0.4 mph S0.6 kmh S 1.0 mph1.6 kmh 29.86 in1011.2 mb - 0.00 in0.0 mm 0.00 in0.0 mm
12:00 PM 70.8°F21.6°C 61.3°F16.3°C 72% 1.7 mph S2.7 kmh S 3.0 mph4.8 kmh 29.88 in1011.9 mb - 0.00 in0.0 mm 0.00 in0.0 mm
11:30 AM 69.9°F21.1°C 60.1°F15.6°C 71% Calm Calm -- 29.88 in1011.9 mb - 0.00 in0.0 mm 0.00 in0.0 mm
11:00 AM 70.3°F21.3°C 60.1°F15.6°C 70% 0.7 mph S1.1 kmh S 2.0 mph3.2 kmh 29.89 in1012.2 mb - 0.00 in0.0 mm 0.00 in0.0 mm
10:30 AM 69.6°F20.9°C 59.3°F15.2°C 70% 1.8 mph SSE2.9 kmh SSE 4.0 mph6.4 kmh 29.89 in1012.2 mb - 0.00 in0.0 mm 0.00 in0.0 mm
10:00 AM 68.8°F20.4°C 60.2°F15.7°C 74% 0.5 mph S0.8 kmh S 3.0 mph4.8 kmh 29.88 in1011.9 mb - 0.00 in0.0 mm 0.00 in0.0 mm
09:30 AM 67.6°F19.8°C 60.5°F15.8°C 78% 2.9 mph N4.7 kmh N 5.0 mph8.0 kmh 29.88 in1011.9 mb - 0.00 in0.0 mm 0.00 in0.0 mm
09:00 AM 68.1°F20.1°C 59.5°F15.3°C 74% 1.7 mph NNW2.7 kmh NNW 2.0 mph3.2 kmh 29.86 in1011.2 mb - 0.00 in0.0 mm 0.00 in0.0 mm
08:30 AM 68.7°F20.4°C 58.1°F14.5°C 69% 1.9 mph NNW3.1 kmh NNW 4.0 mph6.4 kmh 29.86 in1011.2 mb - 0.00 in0.0 mm 0.00 in0.0 mm
08:00 AM 69.2°F20.7°C 57.8°F14.3°C 67% 1.3 mph NNW2.1 kmh NNW 1.0 mph1.6 kmh 29.86 in1011.2 mb - 0.00 in0.0 mm 0.00 in0.0 mm
07:30 AM 67.0°F19.4°C 58.8°F14.9°C 75% 0.2 mph NNW0.3 kmh NNW 1.0 mph1.6 kmh 29.86 in1011.2 mb - 0.00 in0.0 mm 0.00 in0.0 mm
07:00 AM 66.2°F19.0°C 57.7°F14.3°C 74% Calm Calm -- 29.87 in1011.5 mb - 0.00 in0.0 mm 0.00 in0.0 mm
06:30 AM 65.4°F18.6°C 57.6°F14.2°C 76% 1.2 mph NNW1.9 kmh NNW 2.0 mph3.2 kmh 29.86 in1011.2 mb - 0.00 in0.0 mm 0.00 in0.0 mm
06:00 AM 63.8°F17.7°C 55.7°F13.2°C 75% 0.8 mph NNW1.3 kmh NNW 2.0 mph3.2 kmh 29.86 in1011.2 mb - 0.00 in0.0 mm 0.00 in0.0 mm
05:30 AM 61.9°F16.6°C 54.6°F12.6°C 77% 2.3 mph NNW3.7 kmh NNW 3.0 mph4.8 kmh 29.86 in1011.2 mb - 0.00 in0.0 mm 0.00 in0.0 mm
05:00 AM 63.6°F17.6°C 54.8°F12.7°C 73% 3.2 mph NNW5.1 kmh NNW 4.0 mph6.4 kmh 29.87 in1011.5 mb - 0.00 in0.0 mm 0.00 in0.0 mm
04:30 AM 63.5°F17.5°C 54.7°F12.6°C 73% 1.4 mph NNW2.3 kmh NNW 2.0 mph3.2 kmh 29.87 in1011.5 mb - 0.00 in0.0 mm 0.00 in0.0 mm
04:00 AM 64.4°F18.0°C 54.4°F12.4°C 70% 0.1 mph NNW0.2 kmh NNW -- 29.89 in1012.2 mb - 0.00 in0.0 mm 0.00 in0.0 mm
03:30 AM 64.1°F17.8°C 54.1°F12.3°C 70% 2.9 mph NNW4.7 kmh NNW 4.0 mph6.4 kmh 29.90 in1012.5 mb - 0.00 in0.0 mm 0.00 in0.0 mm
03:00 AM 64.3°F17.9°C 53.9°F12.2°C 69% 3.5 mph NNW5.6 kmh NNW 4.0 mph6.4 kmh 29.91 in1012.9 mb - 0.00 in0.0 mm 0.00 in0.0 mm
02:30 AM 66.0°F18.9°C 54.4°F12.4°C 66% 3.0 mph NNW4.8 kmh NNW 4.0 mph6.4 kmh 29.91 in1012.9 mb - 0.00 in0.0 mm 0.00 in0.0 mm
02:00 AM 66.8°F19.3°C 54.2°F12.3°C 64% Calm Calm -- 29.91 in1012.9 mb - 0.00 in0.0 mm 0.00 in0.0 mm
01:30 AM 67.6°F19.8°C 54.6°F12.6°C 63% Calm Calm -- 29.93 in1013.5 mb - 0.00 in0.0 mm 0.00 in0.0 mm
01:00 AM 67.1°F19.5°C 54.5°F12.5°C 64% 3.1 mph NE5.0 kmh NE 7.0 mph11.3 kmh 29.94 in1013.9 mb - 0.00 in0.0 mm 0.00 in0.0 mm
12:30 AM 67.3°F19.6°C 54.7°F12.6°C 64% 3.5 mph NNW5.6 kmh NNW 8.0 mph12.9 kmh 29.95 in1014.2 mb - 0.00 in0.0 mm 0.00 in0.0 mm
12:00 AM 67.5°F19.7°C 54.5°F12.5°C 63% 1.8 mph NNE2.9 kmh NNE 3.0 mph4.8 kmh 29.95 in1014.2 mb - 0.00 in0.0 mm 0.00 in0.0 mm